sensor_id;sensor_type;location;lat;lon;timestamp;P1;durP1;ratioP1;P2;durP2;ratioP2
32365;SDS011;18837;46.832;16.838;2022-12-18T00:00:33;36.00;;;23.13;;
32365;SDS011;18837;46.832;16.838;2022-12-18T00:02:58;32.53;;;23.37;;
32365;SDS011;18837;46.832;16.838;2022-12-18T00:05:24;31.90;;;22.20;;
32365;SDS011;18837;46.832;16.838;2022-12-18T00:07:50;30.33;;;21.60;;
32365;SDS011;18837;46.832;16.838;2022-12-18T00:10:16;35.43;;;22.60;;
32365;SDS011;18837;46.832;16.838;2022-12-18T00:19:02;34.83;;;22.57;;
32365;SDS011;18837;46.832;16.838;2022-12-18T00:21:29;33.27;;;22.33;;
32365;SDS011;18837;46.832;16.838;2022-12-18T00:23:56;37.03;;;22.20;;
32365;SDS011;18837;46.832;16.838;2022-12-18T00:26:24;31.93;;;22.17;;
32365;SDS011;18837;46.832;16.838;2022-12-18T00:28:54;32.43;;;21.47;;
32365;SDS011;18837;46.832;16.838;2022-12-18T00:34:12;34.17;;;22.37;;
32365;SDS011;18837;46.832;16.838;2022-12-18T00:36:38;31.03;;;21.20;;
32365;SDS011;18837;46.832;16.838;2022-12-18T00:39:06;32.10;;;21.33;;
32365;SDS011;18837;46.832;16.838;2022-12-18T00:41:32;34.23;;;21.87;;
32365;SDS011;18837;46.832;16.838;2022-12-18T00:44:17;33.53;;;21.97;;
32365;SDS011;18837;46.832;16.838;2022-12-18T00:53:18;33.90;;;22.30;;
32365;SDS011;18837;46.832;16.838;2022-12-18T00:55:43;32.47;;;21.37;;
32365;SDS011;18837;46.832;16.838;2022-12-18T00:58:13;34.83;;;22.93;;
32365;SDS011;18837;46.832;16.838;2022-12-18T01:00:41;34.23;;;21.83;;
32365;SDS011;18837;46.832;16.838;2022-12-18T01:03:10;35.07;;;22.13;;
32365;SDS011;18837;46.832;16.838;2022-12-18T01:05:39;36.83;;;23.30;;
32365;SDS011;18837;46.832;16.838;2022-12-18T01:08:12;35.00;;;22.40;;
32365;SDS011;18837;46.832;16.838;2022-12-18T01:10:41;33.03;;;22.20;;
32365;SDS011;18837;46.832;16.838;2022-12-18T01:13:07;33.90;;;22.07;;
32365;SDS011;18837;46.832;16.838;2022-12-18T01:15:33;35.03;;;21.40;;
32365;SDS011;18837;46.832;16.838;2022-12-18T01:17:59;32.60;;;21.53;;
32365;SDS011;18837;46.832;16.838;2022-12-18T01:20:24;34.10;;;22.20;;
32365;SDS011;18837;46.832;16.838;2022-12-18T01:26:16;35.30;;;22.57;;
32365;SDS011;18837;46.832;16.838;2022-12-18T01:28:42;34.10;;;22.20;;
32365;SDS011;18837;46.832;16.838;2022-12-18T01:31:10;32.03;;;21.47;;
32365;SDS011;18837;46.832;16.838;2022-12-18T01:33:39;34.20;;;21.83;;
32365;SDS011;18837;46.832;16.838;2022-12-18T01:36:04;34.00;;;22.17;;
32365;SDS011;18837;46.832;16.838;2022-12-18T01:38:31;36.43;;;22.87;;
32365;SDS011;18837;46.832;16.838;2022-12-18T01:41:15;36.43;;;22.60;;
32365;SDS011;18837;46.832;16.838;2022-12-18T01:46:09;33.07;;;22.13;;
32365;SDS011;18837;46.832;16.838;2022-12-18T01:48:35;35.40;;;22.90;;
32365;SDS011;18837;46.832;16.838;2022-12-18T01:51:01;34.83;;;22.47;;
32365;SDS011;18837;46.832;16.838;2022-12-18T01:53:27;33.33;;;20.67;;
32365;SDS011;18837;46.832;16.838;2022-12-18T02:02:37;32.07;;;20.73;;
32365;SDS011;18837;46.832;16.838;2022-12-18T02:05:03;34.63;;;21.60;;
32365;SDS011;18837;46.832;16.838;2022-12-18T02:07:37;35.10;;;22.50;;
32365;SDS011;18837;46.832;16.838;2022-12-18T02:10:24;33.20;;;20.90;;
32365;SDS011;18837;46.832;16.838;2022-12-18T02:18:56;33.73;;;20.97;;
32365;SDS011;18837;46.832;16.838;2022-12-18T02:21:31;35.67;;;21.57;;
32365;SDS011;18837;46.832;16.838;2022-12-18T02:27:05;32.23;;;21.60;;
32365;SDS011;18837;46.832;16.838;2022-12-18T02:38:05;33.67;;;21.97;;
32365;SDS011;18837;46.832;16.838;2022-12-18T02:40:31;34.50;;;22.73;;
32365;SDS011;18837;46.832;16.838;2022-12-18T02:43:11;33.60;;;21.17;;
32365;SDS011;18837;46.832;16.838;2022-12-18T02:45:47;32.67;;;21.00;;
32365;SDS011;18837;46.832;16.838;2022-12-18T02:48:22;35.17;;;22.63;;
32365;SDS011;18837;46.832;16.838;2022-12-18T02:54:06;34.10;;;21.93;;
32365;SDS011;18837;46.832;16.838;2022-12-18T02:56:40;31.80;;;21.20;;
32365;SDS011;18837;46.832;16.838;2022-12-18T02:59:13;32.23;;;21.37;;
32365;SDS011;18837;46.832;16.838;2022-12-18T03:15:53;35.57;;;22.00;;
32365;SDS011;18837;46.832;16.838;2022-12-18T03:18:23;34.27;;;21.73;;
32365;SDS011;18837;46.832;16.838;2022-12-18T03:21:02;35.53;;;21.00;;
32365;SDS011;18837;46.832;16.838;2022-12-18T03:23:32;33.03;;;21.10;;
32365;SDS011;18837;46.832;16.838;2022-12-18T03:26:07;34.13;;;21.13;;
32365;SDS011;18837;46.832;16.838;2022-12-18T03:28:36;33.70;;;21.03;;
32365;SDS011;18837;46.832;16.838;2022-12-18T03:31:16;33.80;;;21.53;;
32365;SDS011;18837;46.832;16.838;2022-12-18T03:34:01;34.77;;;22.07;;
32365;SDS011;18837;46.832;16.838;2022-12-18T03:36:30;34.20;;;20.73;;
32365;SDS011;18837;46.832;16.838;2022-12-18T03:38:57;31.60;;;21.07;;
32365;SDS011;18837;46.832;16.838;2022-12-18T03:47:53;32.67;;;20.97;;
32365;SDS011;18837;46.832;16.838;2022-12-18T03:53:45;33.33;;;21.53;;
32365;SDS011;18837;46.832;16.838;2022-12-18T03:56:03;33.00;;;21.60;;
32365;SDS011;18837;46.832;16.838;2022-12-18T03:58:30;31.63;;;20.40;;
32365;SDS011;18837;46.832;16.838;2022-12-18T04:03:47;34.13;;;21.07;;
32365;SDS011;18837;46.832;16.838;2022-12-18T04:06:15;33.43;;;21.70;;
32365;SDS011;18837;46.832;16.838;2022-12-18T04:08:42;34.27;;;21.63;;
32365;SDS011;18837;46.832;16.838;2022-12-18T04:11:09;33.73;;;21.90;;
32365;SDS011;18837;46.832;16.838;2022-12-18T04:13:36;29.40;;;20.23;;
32365;SDS011;18837;46.832;16.838;2022-12-18T04:21:44;31.13;;;20.60;;
32365;SDS011;18837;46.832;16.838;2022-12-18T04:24:10;32.53;;;20.63;;
32365;SDS011;18837;46.832;16.838;2022-12-18T04:26:39;33.10;;;21.00;;
32365;SDS011;18837;46.832;16.838;2022-12-18T04:29:09;30.67;;;20.63;;
32365;SDS011;18837;46.832;16.838;2022-12-18T04:31:35;33.87;;;21.13;;
32365;SDS011;18837;46.832;16.838;2022-12-18T04:36:51;32.97;;;20.57;;
32365;SDS011;18837;46.832;16.838;2022-12-18T04:39:19;31.83;;;20.10;;
32365;SDS011;18837;46.832;16.838;2022-12-18T04:41:45;29.80;;;19.13;;
32365;SDS011;18837;46.832;16.838;2022-12-18T04:44:11;31.90;;;21.10;;
32365;SDS011;18837;46.832;16.838;2022-12-18T04:46:36;30.80;;;20.80;;
32365;SDS011;18837;46.832;16.838;2022-12-18T04:55:46;34.33;;;20.63;;
32365;SDS011;18837;46.832;16.838;2022-12-18T04:58:12;35.27;;;21.20;;
32365;SDS011;18837;46.832;16.838;2022-12-18T05:00:40;34.13;;;21.03;;
32365;SDS011;18837;46.832;16.838;2022-12-18T05:03:07;31.50;;;21.50;;
32365;SDS011;18837;46.832;16.838;2022-12-18T05:05:34;30.77;;;20.27;;
32365;SDS011;18837;46.832;16.838;2022-12-18T05:10:57;33.13;;;20.03;;
32365;SDS011;18837;46.832;16.838;2022-12-18T05:13:25;35.30;;;21.70;;
32365;SDS011;18837;46.832;16.838;2022-12-18T05:15:52;34.80;;;20.83;;
32365;SDS011;18837;46.832;16.838;2022-12-18T05:18:18;34.20;;;20.60;;
32365;SDS011;18837;46.832;16.838;2022-12-18T05:20:44;33.67;;;20.40;;
32365;SDS011;18837;46.832;16.838;2022-12-18T05:23:10;33.07;;;21.17;;
32365;SDS011;18837;46.832;16.838;2022-12-18T05:31:37;35.43;;;21.50;;
32365;SDS011;18837;46.832;16.838;2022-12-18T05:34:03;30.97;;;20.93;;
32365;SDS011;18837;46.832;16.838;2022-12-18T05:36:29;36.20;;;21.50;;
32365;SDS011;18837;46.832;16.838;2022-12-18T05:38:55;33.13;;;22.10;;
32365;SDS011;18837;46.832;16.838;2022-12-18T05:41:21;34.27;;;22.13;;
32365;SDS011;18837;46.832;16.838;2022-12-18T05:46:47;33.47;;;21.40;;
32365;SDS011;18837;46.832;16.838;2022-12-18T05:49:12;32.33;;;21.10;;
32365;SDS011;18837;46.832;16.838;2022-12-18T05:51:39;34.80;;;21.63;;
32365;SDS011;18837;46.832;16.838;2022-12-18T05:54:05;35.17;;;21.33;;
32365;SDS011;18837;46.832;16.838;2022-12-18T05:56:31;33.00;;;21.87;;
32365;SDS011;18837;46.832;16.838;2022-12-18T06:05:13;31.00;;;20.40;;
32365;SDS011;18837;46.832;16.838;2022-12-18T06:07:42;31.60;;;20.17;;
32365;SDS011;18837;46.832;16.838;2022-12-18T06:10:07;32.80;;;20.77;;
32365;SDS011;18837;46.832;16.838;2022-12-18T06:12:33;35.93;;;21.60;;
32365;SDS011;18837;46.832;16.838;2022-12-18T06:14:59;32.93;;;21.93;;
32365;SDS011;18837;46.832;16.838;2022-12-18T06:20:15;37.40;;;22.03;;
32365;SDS011;18837;46.832;16.838;2022-12-18T06:22:44;33.60;;;22.10;;
32365;SDS011;18837;46.832;16.838;2022-12-18T06:25:10;35.73;;;22.13;;
32365;SDS011;18837;46.832;16.838;2022-12-18T06:27:36;33.73;;;21.70;;
32365;SDS011;18837;46.832;16.838;2022-12-18T06:30:04;35.17;;;21.60;;
32365;SDS011;18837;46.832;16.838;2022-12-18T06:36:12;34.27;;;21.20;;
32365;SDS011;18837;46.832;16.838;2022-12-18T06:39:06;36.30;;;21.13;;
32365;SDS011;18837;46.832;16.838;2022-12-18T06:41:32;36.90;;;21.57;;
32365;SDS011;18837;46.832;16.838;2022-12-18T06:43:58;36.23;;;21.90;;
32365;SDS011;18837;46.832;16.838;2022-12-18T06:46:24;32.40;;;20.67;;
32365;SDS011;18837;46.832;16.838;2022-12-18T06:48:49;35.00;;;20.90;;
32365;SDS011;18837;46.832;16.838;2022-12-18T06:54:09;32.37;;;21.03;;
32365;SDS011;18837;46.832;16.838;2022-12-18T06:56:35;37.27;;;21.77;;
32365;SDS011;18837;46.832;16.838;2022-12-18T06:59:01;33.47;;;21.23;;
32365;SDS011;18837;46.832;16.838;2022-12-18T07:01:34;34.67;;;20.83;;
32365;SDS011;18837;46.832;16.838;2022-12-18T07:04:06;33.90;;;21.27;;
32365;SDS011;18837;46.832;16.838;2022-12-18T07:06:32;34.53;;;21.33;;
32365;SDS011;18837;46.832;16.838;2022-12-18T07:14:56;31.47;;;20.97;;
32365;SDS011;18837;46.832;16.838;2022-12-18T07:17:22;35.70;;;21.93;;
32365;SDS011;18837;46.832;16.838;2022-12-18T07:19:48;35.23;;;22.20;;
32365;SDS011;18837;46.832;16.838;2022-12-18T07:22:16;33.20;;;21.17;;
32365;SDS011;18837;46.832;16.838;2022-12-18T07:24:42;38.00;;;22.17;;
32365;SDS011;18837;46.832;16.838;2022-12-18T07:27:10;34.40;;;22.47;;
32365;SDS011;18837;46.832;16.838;2022-12-18T07:29:35;37.03;;;22.23;;
32365;SDS011;18837;46.832;16.838;2022-12-18T07:32:05;36.17;;;23.20;;
32365;SDS011;18837;46.832;16.838;2022-12-18T07:34:35;39.63;;;22.07;;
32365;SDS011;18837;46.832;16.838;2022-12-18T07:37:01;34.83;;;22.70;;
32365;SDS011;18837;46.832;16.838;2022-12-18T07:39:26;39.73;;;23.43;;
32365;SDS011;18837;46.832;16.838;2022-12-18T07:48:20;39.07;;;25.40;;
32365;SDS011;18837;46.832;16.838;2022-12-18T07:50:46;44.13;;;27.07;;
32365;SDS011;18837;46.832;16.838;2022-12-18T07:53:12;45.33;;;26.70;;
32365;SDS011;18837;46.832;16.838;2022-12-18T07:55:44;46.80;;;27.87;;
32365;SDS011;18837;46.832;16.838;2022-12-18T07:58:11;43.40;;;27.37;;
32365;SDS011;18837;46.832;16.838;2022-12-18T08:00:36;42.30;;;27.77;;
32365;SDS011;18837;46.832;16.838;2022-12-18T08:03:04;47.83;;;29.03;;
32365;SDS011;18837;46.832;16.838;2022-12-18T08:05:30;45.03;;;27.97;;
32365;SDS011;18837;46.832;16.838;2022-12-18T08:07:56;46.40;;;28.90;;
32365;SDS011;18837;46.832;16.838;2022-12-18T08:10:24;45.13;;;29.97;;
32365;SDS011;18837;46.832;16.838;2022-12-18T08:12:50;45.93;;;29.50;;
32365;SDS011;18837;46.832;16.838;2022-12-18T08:15:22;46.03;;;28.50;;
32365;SDS011;18837;46.832;16.838;2022-12-18T08:20:36;51.37;;;30.20;;
32365;SDS011;18837;46.832;16.838;2022-12-18T08:23:01;47.00;;;30.20;;
32365;SDS011;18837;46.832;16.838;2022-12-18T08:25:27;48.93;;;30.97;;
32365;SDS011;18837;46.832;16.838;2022-12-18T08:27:54;52.73;;;31.63;;
32365;SDS011;18837;46.832;16.838;2022-12-18T08:30:21;51.40;;;30.87;;
32365;SDS011;18837;46.832;16.838;2022-12-18T08:39:04;47.50;;;29.40;;
32365;SDS011;18837;46.832;16.838;2022-12-18T08:41:30;50.00;;;31.00;;
32365;SDS011;18837;46.832;16.838;2022-12-18T08:43:56;50.93;;;32.60;;
32365;SDS011;18837;46.832;16.838;2022-12-18T08:46:41;48.30;;;31.17;;
32365;SDS011;18837;46.832;16.838;2022-12-18T08:49:10;54.63;;;32.73;;
32365;SDS011;18837;46.832;16.838;2022-12-18T08:54:27;53.93;;;34.13;;
32365;SDS011;18837;46.832;16.838;2022-12-18T08:56:54;59.03;;;34.53;;
32365;SDS011;18837;46.832;16.838;2022-12-18T08:59:20;55.33;;;33.63;;
32365;SDS011;18837;46.832;16.838;2022-12-18T09:01:53;55.80;;;34.23;;
32365;SDS011;18837;46.832;16.838;2022-12-18T09:04:22;54.33;;;33.53;;
32365;SDS011;18837;46.832;16.838;2022-12-18T09:13:13;52.33;;;32.53;;
32365;SDS011;18837;46.832;16.838;2022-12-18T09:15:53;55.17;;;34.53;;
32365;SDS011;18837;46.832;16.838;2022-12-18T09:18:20;51.33;;;32.57;;
32365;SDS011;18837;46.832;16.838;2022-12-18T09:20:48;53.47;;;32.97;;
32365;SDS011;18837;46.832;16.838;2022-12-18T09:23:15;49.97;;;31.67;;
32365;SDS011;18837;46.832;16.838;2022-12-18T09:28:31;49.23;;;32.93;;
32365;SDS011;18837;46.832;16.838;2022-12-18T09:30:57;48.40;;;29.77;;
32365;SDS011;18837;46.832;16.838;2022-12-18T09:33:26;52.30;;;33.20;;
32365;SDS011;18837;46.832;16.838;2022-12-18T09:35:52;51.53;;;31.70;;
32365;SDS011;18837;46.832;16.838;2022-12-18T09:38:19;47.23;;;30.53;;
32365;SDS011;18837;46.832;16.838;2022-12-18T09:50:23;47.43;;;28.57;;
32365;SDS011;18837;46.832;16.838;2022-12-18T09:52:52;44.10;;;27.73;;
32365;SDS011;18837;46.832;16.838;2022-12-18T09:55:34;43.43;;;26.47;;
32365;SDS011;18837;46.832;16.838;2022-12-18T09:58:05;41.57;;;25.93;;
32365;SDS011;18837;46.832;16.838;2022-12-18T10:03:24;40.93;;;26.63;;
32365;SDS011;18837;46.832;16.838;2022-12-18T10:06:02;40.03;;;25.40;;
32365;SDS011;18837;46.832;16.838;2022-12-18T10:08:53;36.53;;;24.03;;
32365;SDS011;18837;46.832;16.838;2022-12-18T10:21:18;36.33;;;24.07;;
32365;SDS011;18837;46.832;16.838;2022-12-18T10:26:36;36.63;;;23.10;;
32365;SDS011;18837;46.832;16.838;2022-12-18T10:29:04;35.60;;;22.93;;
32365;SDS011;18837;46.832;16.838;2022-12-18T10:31:40;36.23;;;23.40;;
32365;SDS011;18837;46.832;16.838;2022-12-18T10:36:53;34.07;;;22.60;;
32365;SDS011;18837;46.832;16.838;2022-12-18T10:39:23;32.23;;;22.23;;
32365;SDS011;18837;46.832;16.838;2022-12-18T10:42:09;34.80;;;22.43;;
32365;SDS011;18837;46.832;16.838;2022-12-18T10:44:44;34.87;;;21.97;;
32365;SDS011;18837;46.832;16.838;2022-12-18T10:47:14;31.00;;;21.17;;
32365;SDS011;18837;46.832;16.838;2022-12-18T10:56:05;33.57;;;21.07;;
32365;SDS011;18837;46.832;16.838;2022-12-18T11:03:39;32.33;;;20.77;;
32365;SDS011;18837;46.832;16.838;2022-12-18T11:06:13;32.60;;;20.70;;
32365;SDS011;18837;46.832;16.838;2022-12-18T11:11:30;29.77;;;20.13;;
32365;SDS011;18837;46.832;16.838;2022-12-18T11:14:12;31.23;;;20.90;;
32365;SDS011;18837;46.832;16.838;2022-12-18T11:16:47;32.63;;;20.47;;
32365;SDS011;18837;46.832;16.838;2022-12-18T11:19:28;30.97;;;20.00;;
32365;SDS011;18837;46.832;16.838;2022-12-18T11:22:00;30.13;;;20.47;;
32365;SDS011;18837;46.832;16.838;2022-12-18T11:31:17;30.13;;;18.33;;
32365;SDS011;18837;46.832;16.838;2022-12-18T11:36:49;25.87;;;18.07;;
32365;SDS011;18837;46.832;16.838;2022-12-18T11:39:18;29.97;;;19.67;;
32365;SDS011;18837;46.832;16.838;2022-12-18T11:41:56;29.57;;;19.17;;
32365;SDS011;18837;46.832;16.838;2022-12-18T11:50:02;29.77;;;17.67;;
32365;SDS011;18837;46.832;16.838;2022-12-18T11:52:36;27.30;;;17.47;;
32365;SDS011;18837;46.832;16.838;2022-12-18T11:55:10;24.10;;;17.17;;
32365;SDS011;18837;46.832;16.838;2022-12-18T12:24:00;26.63;;;16.77;;
32365;SDS011;18837;46.832;16.838;2022-12-18T12:38:06;28.13;;;15.50;;
32365;SDS011;18837;46.832;16.838;2022-12-18T12:40:43;26.63;;;15.77;;
32365;SDS011;18837;46.832;16.838;2022-12-18T12:43:49;26.90;;;15.90;;
32365;SDS011;18837;46.832;16.838;2022-12-18T12:46:12;25.90;;;15.23;;
32365;SDS011;18837;46.832;16.838;2022-12-18T12:51:25;30.63;;;16.10;;
32365;SDS011;18837;46.832;16.838;2022-12-18T12:54:05;26.90;;;17.37;;
32365;SDS011;18837;46.832;16.838;2022-12-18T12:56:53;23.77;;;15.90;;
32365;SDS011;18837;46.832;16.838;2022-12-18T13:02:42;28.70;;;15.67;;
32365;SDS011;18837;46.832;16.838;2022-12-18T13:14:54;22.43;;;14.83;;
32365;SDS011;18837;46.832;16.838;2022-12-18T13:17:47;25.27;;;16.27;;
32365;SDS011;18837;46.832;16.838;2022-12-18T13:20:14;26.07;;;14.73;;
32365;SDS011;18837;46.832;16.838;2022-12-18T13:22:44;21.33;;;15.07;;
32365;SDS011;18837;46.832;16.838;2022-12-18T13:25:29;27.20;;;16.10;;
32365;SDS011;18837;46.832;16.838;2022-12-18T13:28:15;24.13;;;15.73;;
32365;SDS011;18837;46.832;16.838;2022-12-18T13:30:49;27.20;;;16.13;;
32365;SDS011;18837;46.832;16.838;2022-12-18T13:36:12;23.03;;;15.20;;
32365;SDS011;18837;46.832;16.838;2022-12-18T13:39:30;24.53;;;15.63;;
32365;SDS011;18837;46.832;16.838;2022-12-18T13:41:37;24.00;;;15.77;;
32365;SDS011;18837;46.832;16.838;2022-12-18T13:50:13;29.47;;;16.30;;
32365;SDS011;18837;46.832;16.838;2022-12-18T13:52:49;33.10;;;16.97;;
32365;SDS011;18837;46.832;16.838;2022-12-18T13:55:20;30.63;;;16.50;;
32365;SDS011;18837;46.832;16.838;2022-12-18T13:57:48;27.87;;;16.97;;
32365;SDS011;18837;46.832;16.838;2022-12-18T14:02:56;27.23;;;16.37;;
32365;SDS011;18837;46.832;16.838;2022-12-18T14:05:29;25.47;;;16.20;;
32365;SDS011;18837;46.832;16.838;2022-12-18T14:08:01;29.43;;;16.30;;
32365;SDS011;18837;46.832;16.838;2022-12-18T14:10:33;23.67;;;14.67;;
32365;SDS011;18837;46.832;16.838;2022-12-18T14:13:03;22.87;;;15.23;;
32365;SDS011;18837;46.832;16.838;2022-12-18T14:15:35;23.70;;;15.27;;
32365;SDS011;18837;46.832;16.838;2022-12-18T14:21:37;20.10;;;14.97;;
32365;SDS011;18837;46.832;16.838;2022-12-18T14:24:14;19.80;;;13.27;;
32365;SDS011;18837;46.832;16.838;2022-12-18T14:26:42;22.87;;;14.37;;
32365;SDS011;18837;46.832;16.838;2022-12-18T14:29:22;24.03;;;14.47;;
32365;SDS011;18837;46.832;16.838;2022-12-18T14:32:11;19.80;;;13.17;;
32365;SDS011;18837;46.832;16.838;2022-12-18T14:34:41;21.50;;;14.23;;
32365;SDS011;18837;46.832;16.838;2022-12-18T14:37:26;27.30;;;14.87;;
32365;SDS011;18837;46.832;16.838;2022-12-18T14:39:53;25.63;;;14.57;;
32365;SDS011;18837;46.832;16.838;2022-12-18T14:42:28;26.13;;;14.77;;
32365;SDS011;18837;46.832;16.838;2022-12-18T14:48:06;21.73;;;13.97;;
32365;SDS011;18837;46.832;16.838;2022-12-18T14:50:32;23.53;;;13.90;;
32365;SDS011;18837;46.832;16.838;2022-12-18T14:59:01;20.57;;;14.10;;
32365;SDS011;18837;46.832;16.838;2022-12-18T15:01:36;19.23;;;13.67;;
32365;SDS011;18837;46.832;16.838;2022-12-18T15:04:04;22.50;;;14.40;;
32365;SDS011;18837;46.832;16.838;2022-12-18T15:06:48;26.50;;;16.30;;
32365;SDS011;18837;46.832;16.838;2022-12-18T15:09:24;21.63;;;14.93;;
32365;SDS011;18837;46.832;16.838;2022-12-18T15:12:00;23.70;;;15.40;;
32365;SDS011;18837;46.832;16.838;2022-12-18T15:15:00;23.97;;;14.90;;
32365;SDS011;18837;46.832;16.838;2022-12-18T15:17:23;22.03;;;14.50;;
32365;SDS011;18837;46.832;16.838;2022-12-18T15:19:51;21.70;;;14.90;;
32365;SDS011;18837;46.832;16.838;2022-12-18T15:22:25;23.93;;;15.37;;
32365;SDS011;18837;46.832;16.838;2022-12-18T15:24:53;25.53;;;15.60;;
32365;SDS011;18837;46.832;16.838;2022-12-18T15:30:23;23.07;;;14.83;;
32365;SDS011;18837;46.832;16.838;2022-12-18T15:32:50;25.50;;;15.57;;
32365;SDS011;18837;46.832;16.838;2022-12-18T15:35:24;23.30;;;15.03;;
32365;SDS011;18837;46.832;16.838;2022-12-18T15:37:50;23.30;;;15.63;;
32365;SDS011;18837;46.832;16.838;2022-12-18T15:40:19;21.97;;;15.43;;
32365;SDS011;18837;46.832;16.838;2022-12-18T15:42:47;23.90;;;15.13;;
32365;SDS011;18837;46.832;16.838;2022-12-18T15:45:47;24.83;;;15.93;;
32365;SDS011;18837;46.832;16.838;2022-12-18T15:48:17;22.97;;;14.63;;
32365;SDS011;18837;46.832;16.838;2022-12-18T15:50:48;22.90;;;15.93;;
32365;SDS011;18837;46.832;16.838;2022-12-18T15:53:18;24.23;;;15.53;;
32365;SDS011;18837;46.832;16.838;2022-12-18T15:55:44;26.47;;;15.97;;
32365;SDS011;18837;46.832;16.838;2022-12-18T15:58:28;24.47;;;15.87;;
32365;SDS011;18837;46.832;16.838;2022-12-18T16:07:19;24.23;;;16.67;;
32365;SDS011;18837;46.832;16.838;2022-12-18T16:09:45;23.50;;;16.33;;
32365;SDS011;18837;46.832;16.838;2022-12-18T16:12:18;25.43;;;17.27;;
32365;SDS011;18837;46.832;16.838;2022-12-18T16:14:47;26.37;;;17.47;;
32365;SDS011;18837;46.832;16.838;2022-12-18T16:17:14;24.63;;;16.87;;
32365;SDS011;18837;46.832;16.838;2022-12-18T16:22:28;32.63;;;20.00;;
32365;SDS011;18837;46.832;16.838;2022-12-18T16:24:55;33.17;;;19.40;;
32365;SDS011;18837;46.832;16.838;2022-12-18T16:27:22;33.27;;;19.80;;
32365;SDS011;18837;46.832;16.838;2022-12-18T16:29:49;28.33;;;19.53;;
32365;SDS011;18837;46.832;16.838;2022-12-18T16:32:17;27.80;;;19.57;;
32365;SDS011;18837;46.832;16.838;2022-12-18T16:41:16;30.50;;;19.70;;
32365;SDS011;18837;46.832;16.838;2022-12-18T16:43:56;30.83;;;18.93;;
32365;SDS011;18837;46.832;16.838;2022-12-18T16:46:22;28.97;;;20.20;;
32365;SDS011;18837;46.832;16.838;2022-12-18T16:48:48;27.07;;;18.73;;
32365;SDS011;18837;46.832;16.838;2022-12-18T16:51:15;28.83;;;18.43;;
32365;SDS011;18837;46.832;16.838;2022-12-18T16:53:41;27.30;;;18.87;;
32365;SDS011;18837;46.832;16.838;2022-12-18T16:56:16;28.17;;;19.27;;
32365;SDS011;18837;46.832;16.838;2022-12-18T16:58:42;28.33;;;19.90;;
32365;SDS011;18837;46.832;16.838;2022-12-18T17:01:09;29.80;;;21.03;;
32365;SDS011;18837;46.832;16.838;2022-12-18T17:03:35;30.13;;;20.67;;
32365;SDS011;18837;46.832;16.838;2022-12-18T17:06:02;33.10;;;20.13;;
32365;SDS011;18837;46.832;16.838;2022-12-18T17:08:29;31.73;;;20.83;;
32365;SDS011;18837;46.832;16.838;2022-12-18T17:16:53;29.57;;;20.07;;
32365;SDS011;18837;46.832;16.838;2022-12-18T17:19:21;29.00;;;21.33;;
32365;SDS011;18837;46.832;16.838;2022-12-18T17:21:49;30.83;;;21.40;;
32365;SDS011;18837;46.832;16.838;2022-12-18T17:24:18;31.80;;;22.47;;
32365;SDS011;18837;46.832;16.838;2022-12-18T17:26:45;31.63;;;21.67;;
32365;SDS011;18837;46.832;16.838;2022-12-18T17:29:30;33.67;;;23.27;;
32365;SDS011;18837;46.832;16.838;2022-12-18T17:31:56;34.40;;;21.93;;
32365;SDS011;18837;46.832;16.838;2022-12-18T17:34:22;33.17;;;23.20;;
32365;SDS011;18837;46.832;16.838;2022-12-18T17:36:48;32.73;;;21.80;;
32365;SDS011;18837;46.832;16.838;2022-12-18T17:39:15;33.37;;;22.77;;
32365;SDS011;18837;46.832;16.838;2022-12-18T17:41:43;36.53;;;23.77;;
32365;SDS011;18837;46.832;16.838;2022-12-18T17:50:22;33.50;;;22.90;;
32365;SDS011;18837;46.832;16.838;2022-12-18T17:52:48;32.73;;;23.70;;
32365;SDS011;18837;46.832;16.838;2022-12-18T17:55:13;35.40;;;23.33;;
32365;SDS011;18837;46.832;16.838;2022-12-18T17:57:39;33.53;;;23.27;;
32365;SDS011;18837;46.832;16.838;2022-12-18T18:00:05;31.10;;;22.23;;
32365;SDS011;18837;46.832;16.838;2022-12-18T18:02:31;34.27;;;24.00;;
32365;SDS011;18837;46.832;16.838;2022-12-18T18:05:09;31.83;;;23.13;;
32365;SDS011;18837;46.832;16.838;2022-12-18T18:07:36;35.33;;;23.40;;
32365;SDS011;18837;46.832;16.838;2022-12-18T18:10:04;33.63;;;23.93;;
32365;SDS011;18837;46.832;16.838;2022-12-18T18:12:31;32.80;;;23.30;;
32365;SDS011;18837;46.832;16.838;2022-12-18T18:15:15;32.83;;;23.03;;
32365;SDS011;18837;46.832;16.838;2022-12-18T18:17:41;35.30;;;23.60;;
32365;SDS011;18837;46.832;16.838;2022-12-18T18:26:05;31.57;;;22.53;;
32365;SDS011;18837;46.832;16.838;2022-12-18T18:28:32;31.97;;;22.40;;
32365;SDS011;18837;46.832;16.838;2022-12-18T18:31:03;33.80;;;23.13;;
32365;SDS011;18837;46.832;16.838;2022-12-18T18:33:31;31.97;;;22.20;;
32365;SDS011;18837;46.832;16.838;2022-12-18T18:36:00;35.63;;;23.37;;
32365;SDS011;18837;46.832;16.838;2022-12-18T18:41:12;31.33;;;21.90;;
32365;SDS011;18837;46.832;16.838;2022-12-18T18:43:38;32.33;;;22.27;;
32365;SDS011;18837;46.832;16.838;2022-12-18T18:46:04;32.40;;;22.53;;
32365;SDS011;18837;46.832;16.838;2022-12-18T18:48:34;31.23;;;21.40;;
32365;SDS011;18837;46.832;16.838;2022-12-18T18:53:36;31.03;;;21.20;;
32365;SDS011;18837;46.832;16.838;2022-12-18T19:02:01;31.60;;;21.67;;
32365;SDS011;18837;46.832;16.838;2022-12-18T19:04:27;33.83;;;22.37;;
32365;SDS011;18837;46.832;16.838;2022-12-18T19:06:53;31.10;;;21.67;;
32365;SDS011;18837;46.832;16.838;2022-12-18T19:09:19;32.57;;;22.93;;
32365;SDS011;18837;46.832;16.838;2022-12-18T19:11:49;33.53;;;23.13;;
32365;SDS011;18837;46.832;16.838;2022-12-18T19:14:36;33.80;;;23.10;;
32365;SDS011;18837;46.832;16.838;2022-12-18T19:17:05;31.03;;;22.20;;
32365;SDS011;18837;46.832;16.838;2022-12-18T19:19:31;32.83;;;22.33;;
32365;SDS011;18837;46.832;16.838;2022-12-18T19:21:57;33.70;;;22.50;;
32365;SDS011;18837;46.832;16.838;2022-12-18T19:24:24;32.43;;;22.33;;
32365;SDS011;18837;46.832;16.838;2022-12-18T19:26:54;34.07;;;22.80;;
32365;SDS011;18837;46.832;16.838;2022-12-18T19:35:31;33.70;;;23.80;;
32365;SDS011;18837;46.832;16.838;2022-12-18T19:37:57;34.03;;;23.13;;
32365;SDS011;18837;46.832;16.838;2022-12-18T19:40:23;33.67;;;23.67;;
32365;SDS011;18837;46.832;16.838;2022-12-18T19:42:49;31.90;;;22.97;;
32365;SDS011;18837;46.832;16.838;2022-12-18T19:45:15;35.30;;;23.73;;
32365;SDS011;18837;46.832;16.838;2022-12-18T19:50:29;35.93;;;24.37;;
32365;SDS011;18837;46.832;16.838;2022-12-18T19:52:58;35.07;;;24.60;;
32365;SDS011;18837;46.832;16.838;2022-12-18T19:55:24;34.57;;;24.10;;
32365;SDS011;18837;46.832;16.838;2022-12-18T19:57:50;35.50;;;24.10;;
32365;SDS011;18837;46.832;16.838;2022-12-18T20:00:20;35.97;;;24.33;;
32365;SDS011;18837;46.832;16.838;2022-12-18T20:11:55;39.83;;;24.23;;
32365;SDS011;18837;46.832;16.838;2022-12-18T20:14:21;36.97;;;24.60;;
32365;SDS011;18837;46.832;16.838;2022-12-18T20:16:49;39.77;;;26.17;;